createdAt,value
2019-03-03T00:01:10.018Z,98141.96
2019-03-03T00:03:39.273Z,98146.16
2019-03-03T00:06:08.500Z,98140.92
2019-03-03T00:08:38.020Z,98146.34
2019-03-03T00:11:07.283Z,98150.16
2019-03-03T00:13:36.556Z,98146.91
2019-03-03T00:16:06.053Z,98149.98
2019-03-03T00:18:35.332Z,98146.19
2019-03-03T00:21:04.566Z,98141.73
2019-03-03T00:23:33.879Z,98142.14
2019-03-03T00:26:03.593Z,98144.46
2019-03-03T00:28:32.837Z,98134.98
2019-03-03T00:31:02.090Z,98140.77
2019-03-03T00:33:31.340Z,98132.17
2019-03-03T00:36:00.560Z,98130.80
2019-03-03T00:38:39.118Z,98134.37
2019-03-03T00:41:22.856Z,98126.91
2019-03-03T00:44:08.037Z,98127.88
2019-03-03T00:46:52.481Z,98134.59
2019-03-03T00:49:34.038Z,98130.75
2019-03-03T00:52:30.840Z,98131.88
2019-03-03T00:55:10.068Z,98123.58
2019-03-03T00:58:02.457Z,98122.23
2019-03-03T01:00:54.755Z,98121.11
2019-03-03T01:03:48.924Z,98114.71
2019-03-03T01:06:46.083Z,98111.22
2019-03-03T01:09:51.570Z,98107.05
2019-03-03T01:12:38.522Z,98105.00
2019-03-03T01:15:16.221Z,98109.29
2019-03-03T01:18:16.448Z,98111.23
2019-03-03T01:21:10.574Z,98109.29
2019-03-03T01:23:47.785Z,98108.09
2019-03-03T01:26:17.034Z,98109.77
2019-03-03T01:28:46.285Z,98112.02
2019-03-03T01:31:15.538Z,98110.19
2019-03-03T01:33:44.769Z,98112.22
2019-03-03T01:36:14.156Z,98114.55
2019-03-03T01:38:43.390Z,98105.61
2019-03-03T01:41:12.650Z,98107.16
2019-03-03T01:43:41.872Z,98105.64
2019-03-03T01:46:11.158Z,98097.60
2019-03-03T01:48:40.494Z,98101.84
2019-03-03T01:51:09.805Z,98110.14
2019-03-03T01:53:39.023Z,98101.88
2019-03-03T01:56:08.282Z,98107.06
2019-03-03T01:58:37.521Z,98116.89
2019-03-03T02:01:06.818Z,98116.13
2019-03-03T02:03:36.469Z,98112.16
2019-03-03T02:06:06.914Z,98115.56
2019-03-03T02:08:36.142Z,98108.34
2019-03-03T02:11:05.625Z,98109.29
2019-03-03T02:13:36.962Z,98104.59
2019-03-03T02:16:09.573Z,98100.38
2019-03-03T02:18:38.798Z,98103.86
2019-03-03T02:21:08.101Z,98103.16
2019-03-03T02:23:37.346Z,98106.14
2019-03-03T02:26:06.585Z,98101.11
2019-03-03T02:28:35.879Z,98104.98
2019-03-03T02:31:05.174Z,98095.16
2019-03-03T02:33:34.416Z,98097.33
2019-03-03T02:36:03.654Z,98096.50
2019-03-03T02:38:32.973Z,98092.88
2019-03-03T02:41:02.235Z,98088.22
2019-03-03T02:43:38.927Z,98086.21
2019-03-03T02:46:08.158Z,98089.16
2019-03-03T02:48:37.407Z,98086.39
2019-03-03T02:51:06.694Z,98081.56
2019-03-03T02:53:35.914Z,98080.37
2019-03-03T02:56:05.177Z,98079.41
2019-03-03T02:58:34.404Z,98074.02
2019-03-03T03:01:21.241Z,98073.42
2019-03-03T03:03:50.491Z,98076.27
2019-03-03T03:06:27.627Z,98072.08
2019-03-03T03:09:14.687Z,98073.86
2019-03-03T03:12:11.934Z,98072.25
2019-03-03T03:14:52.818Z,98072.67
2019-03-03T03:17:43.942Z,98073.84
2019-03-03T03:20:26.436Z,98081.31
2019-03-03T03:23:04.418Z,98080.14
2019-03-03T03:26:04.653Z,98079.72
2019-03-03T03:28:41.692Z,98079.45
2019-03-03T03:31:24.916Z,98082.09
2019-03-03T03:34:25.321Z,98079.67
2019-03-03T03:37:04.902Z,98083.51
2019-03-03T03:39:40.189Z,98090.48
2019-03-03T03:42:37.736Z,98081.98
2019-03-03T03:45:21.786Z,98079.36
2019-03-03T03:48:12.845Z,98085.60
2019-03-03T03:51:08.912Z,98084.59
2019-03-03T03:53:57.120Z,98085.33
2019-03-03T03:56:51.654Z,98082.89
2019-03-03T03:59:32.352Z,98092.78
2019-03-03T04:02:19.945Z,98088.60
2019-03-03T04:05:06.872Z,98087.65
2019-03-03T04:07:42.568Z,98094.00
2019-03-03T04:10:20.405Z,98091.34
2019-03-03T04:13:17.213Z,98084.42
2019-03-03T04:16:03.945Z,98087.08
2019-03-03T04:18:52.168Z,98085.12
2019-03-03T04:21:38.935Z,98085.22
2019-03-03T04:24:42.399Z,98087.28
2019-03-03T04:27:33.435Z,98090.89
2019-03-03T04:30:30.498Z,98089.36
2019-03-03T04:33:06.975Z,98087.91
2019-03-03T04:35:55.328Z,98089.23
2019-03-03T04:38:44.455Z,98081.69
2019-03-03T04:41:24.824Z,98081.98
2019-03-03T04:44:18.920Z,98083.02
2019-03-03T04:47:16.133Z,98081.97
2019-03-03T04:50:14.659Z,98079.20
2019-03-03T04:52:55.949Z,98084.28
2019-03-03T04:55:59.245Z,98081.17
2019-03-03T04:58:46.020Z,98082.81
2019-03-03T05:01:32.734Z,98080.33
2019-03-03T05:04:11.508Z,98077.98
2019-03-03T05:07:02.261Z,98076.95
2019-03-03T05:09:49.226Z,98073.59
2019-03-03T05:12:47.356Z,98071.78
2019-03-03T05:15:51.795Z,98070.27
2019-03-03T05:18:37.657Z,98072.31
2019-03-03T05:21:06.884Z,98075.01
2019-03-03T05:23:36.133Z,98074.46
2019-03-03T05:26:07.365Z,98076.20
2019-03-03T05:28:36.654Z,98066.24
2019-03-03T05:31:05.903Z,98066.16
2019-03-03T05:33:35.187Z,98059.95
2019-03-03T05:36:04.446Z,98060.23
2019-03-03T05:38:33.747Z,98062.19
2019-03-03T05:41:03.019Z,98056.89
2019-03-03T05:43:32.257Z,98058.22
2019-03-03T05:46:01.504Z,98049.84
2019-03-03T05:48:30.721Z,98056.19
2019-03-03T05:51:00.097Z,98055.07
2019-03-03T05:53:29.339Z,98050.68
2019-03-03T05:55:58.631Z,98056.10
2019-03-03T05:58:27.889Z,98044.27
2019-03-03T06:00:57.142Z,98047.73
2019-03-03T06:03:26.432Z,98058.25
2019-03-03T06:05:56.246Z,98053.86
2019-03-03T06:08:25.492Z,98060.08
2019-03-03T06:10:54.785Z,98048.77
2019-03-03T06:13:24.748Z,98049.39
2019-03-03T06:15:53.992Z,98050.71
2019-03-03T06:18:23.539Z,98045.50
2019-03-03T06:20:52.791Z,98049.17
2019-03-03T06:23:22.046Z,98049.68
2019-03-03T06:25:51.398Z,98047.86
2019-03-03T06:28:20.667Z,98051.21
2019-03-03T06:30:50.061Z,98050.30
2019-03-03T06:33:19.296Z,98051.23
2019-03-03T06:35:48.539Z,98042.36
2019-03-03T06:38:17.788Z,98046.24
2019-03-03T06:40:47.053Z,98047.43
2019-03-03T06:43:16.265Z,98044.48
2019-03-03T06:45:45.596Z,98046.22
2019-03-03T06:48:14.840Z,98043.11
2019-03-03T06:50:44.087Z,98040.66
2019-03-03T06:53:13.588Z,98044.30
2019-03-03T06:55:42.858Z,98045.39
2019-03-03T06:58:12.160Z,98049.02
2019-03-03T07:00:41.623Z,98058.95
2019-03-03T07:03:10.902Z,98047.83
2019-03-03T07:05:40.144Z,98050.59
2019-03-03T07:08:09.403Z,98048.19
2019-03-03T07:10:38.703Z,98055.33
2019-03-03T07:13:08.292Z,98048.81
2019-03-03T07:15:37.536Z,98058.22
2019-03-03T07:18:06.760Z,98060.33
2019-03-03T07:20:36.042Z,98059.55
2019-03-03T07:23:05.280Z,98062.95
2019-03-03T07:25:34.546Z,98069.63
2019-03-03T07:28:04.091Z,98062.16
2019-03-03T07:30:33.363Z,98058.89
2019-03-03T07:33:13.783Z,98059.52
2019-03-03T07:35:43.220Z,98050.48
2019-03-03T07:38:12.469Z,98040.91
2019-03-03T07:40:42.145Z,98039.83
2019-03-03T07:43:11.388Z,98046.84
2019-03-03T07:45:40.623Z,98049.78
2019-03-03T07:48:09.884Z,98052.36
2019-03-03T07:50:39.111Z,98050.95
2019-03-03T07:53:08.429Z,98061.76
2019-03-03T07:55:37.660Z,98065.98
2019-03-03T07:58:06.906Z,98066.21
2019-03-03T08:00:36.896Z,98071.77
2019-03-03T08:03:06.153Z,98064.73
2019-03-03T08:05:35.401Z,98065.11
2019-03-03T08:08:04.660Z,98064.00
2019-03-03T08:10:33.940Z,98059.85
2019-03-03T08:13:09.160Z,98053.70
2019-03-03T08:15:36.450Z,98063.50
2019-03-03T08:18:05.791Z,98061.40
2019-03-03T08:20:35.051Z,98062.10
2019-03-03T08:23:04.830Z,98062.57
2019-03-03T08:25:34.077Z,98063.84
2019-03-03T08:28:03.351Z,98059.86
2019-03-03T08:30:32.586Z,98071.11
2019-03-03T08:33:01.842Z,98063.14
2019-03-03T08:35:31.087Z,98064.20
2019-03-03T08:38:00.330Z,98064.64
2019-03-03T08:40:29.559Z,98057.98
2019-03-03T08:43:12.583Z,98056.82
2019-03-03T08:45:51.270Z,98046.30
2019-03-03T08:48:27.399Z,98052.44
2019-03-03T08:51:21.491Z,98057.09
2019-03-03T08:54:15.647Z,98061.76
2019-03-03T08:57:03.870Z,98046.75
2019-03-03T08:59:55.746Z,98055.34
2019-03-03T09:02:42.787Z,98054.20
2019-03-03T09:05:31.159Z,98048.73
2019-03-03T09:08:18.083Z,98048.59
2019-03-03T09:11:04.942Z,98037.41
2019-03-03T09:13:49.391Z,98033.98
2019-03-03T09:16:30.453Z,98036.23
2019-03-03T09:19:24.573Z,98031.83
2019-03-03T09:22:18.564Z,98027.27
2019-03-03T09:25:07.691Z,98022.04
2019-03-03T09:27:57.246Z,98029.52
2019-03-03T09:30:51.324Z,98012.55
2019-03-03T09:33:39.514Z,98016.06
2019-03-03T09:36:26.273Z,98018.56
2019-03-03T09:39:20.002Z,98013.73
2019-03-03T09:41:59.167Z,98022.53
2019-03-03T09:45:02.497Z,98009.49
2019-03-03T09:47:53.270Z,98011.87
2019-03-03T09:50:44.360Z,98007.92
2019-03-03T09:53:25.071Z,98013.66
2019-03-03T09:56:04.688Z,98014.97
2019-03-03T09:59:04.999Z,98018.13
2019-03-03T10:01:55.611Z,98020.73
2019-03-03T10:04:36.104Z,98023.83
2019-03-03T10:07:29.754Z,98009.81
2019-03-03T10:10:30.032Z,98014.72
2019-03-03T10:13:06.130Z,98014.07
2019-03-03T10:15:46.077Z,98017.59
2019-03-03T10:18:34.561Z,98019.73
2019-03-03T10:21:18.473Z,98019.83
2019-03-03T10:23:59.791Z,98012.92
2019-03-03T10:27:00.047Z,98007.16
2019-03-03T10:29:46.918Z,97999.57
2019-03-03T10:32:31.530Z,98004.61
2019-03-03T10:35:19.856Z,98009.42
2019-03-03T10:38:16.968Z,98011.61
2019-03-03T10:40:53.953Z,97996.37
2019-03-03T10:43:32.911Z,98003.16
2019-03-03T10:46:33.091Z,97986.44
2019-03-03T10:49:27.507Z,97997.81
2019-03-03T10:52:17.429Z,98006.47
2019-03-03T10:54:54.529Z,97998.70
2019-03-03T10:57:38.690Z,98001.50
2019-03-03T11:00:44.108Z,97999.88
2019-03-03T11:03:23.352Z,97998.38
2019-03-03T11:06:20.612Z,98001.34
2019-03-03T11:09:08.808Z,97992.27
2019-03-03T11:11:59.740Z,97990.82
2019-03-03T11:14:38.974Z,97992.84
2019-03-03T11:17:25.656Z,97981.09
2019-03-03T11:20:13.859Z,97986.16
2019-03-03T11:23:02.229Z,97979.59
2019-03-03T11:25:53.562Z,97980.41
2019-03-03T11:28:40.463Z,97974.61
2019-03-03T11:31:25.217Z,97975.47
2019-03-03T11:34:16.427Z,97967.33
2019-03-03T11:36:53.712Z,97961.50
2019-03-03T11:39:40.590Z,97953.27
2019-03-03T11:42:22.584Z,97942.98
2019-03-03T11:45:26.333Z,97938.00
2019-03-03T11:48:04.597Z,97935.42
2019-03-03T11:50:46.229Z,97928.52
2019-03-03T11:53:52.603Z,97930.44
2019-03-03T11:56:29.269Z,97925.30
2019-03-03T11:59:32.532Z,97921.08
2019-03-03T12:02:20.739Z,97923.78
2019-03-03T12:05:09.792Z,97915.84
2019-03-03T12:08:05.490Z,97912.61
2019-03-03T12:11:02.757Z,97917.16
2019-03-03T12:13:41.133Z,97921.30
2019-03-03T12:16:44.387Z,97905.41
2019-03-03T12:19:44.399Z,97908.08
2019-03-03T12:22:31.319Z,97901.06
2019-03-03T12:25:15.192Z,97896.78
2019-03-03T12:28:02.403Z,97902.62
2019-03-03T12:30:48.752Z,97902.40
2019-03-03T12:33:35.776Z,97894.32
2019-03-03T12:36:19.879Z,97895.25
2019-03-03T12:39:07.433Z,97896.89
2019-03-03T12:42:03.643Z,97896.42
2019-03-03T12:44:47.536Z,97893.80
2019-03-03T12:47:41.840Z,97881.62
2019-03-03T12:50:30.045Z,97874.61
2019-03-03T12:53:18.232Z,97867.25
2019-03-03T12:55:58.597Z,97871.64
2019-03-03T12:58:46.793Z,97877.94
2019-03-03T13:01:38.411Z,97864.20
2019-03-03T13:04:44.668Z,97861.23
2019-03-03T13:07:35.299Z,97860.09
2019-03-03T13:10:17.137Z,97847.94
2019-03-03T13:13:04.075Z,97852.31
2019-03-03T13:16:04.566Z,97850.45
2019-03-03T13:19:01.730Z,97849.19
2019-03-03T13:21:51.536Z,97839.03
2019-03-03T13:24:30.161Z,97834.00
2019-03-03T13:27:24.161Z,97832.17
2019-03-03T13:30:05.435Z,97829.06
2019-03-03T13:33:09.311Z,97820.67
2019-03-03T13:36:03.412Z,97819.80
2019-03-03T13:38:51.645Z,97817.30
2019-03-03T13:41:38.329Z,97792.75
2019-03-03T13:44:07.605Z,97783.75
2019-03-03T13:46:36.851Z,97781.55
2019-03-03T13:49:06.135Z,97781.90
2019-03-03T13:51:35.379Z,97767.63
2019-03-03T13:54:06.480Z,97773.48
2019-03-03T13:56:35.894Z,97776.56
2019-03-03T13:59:05.470Z,97773.80
2019-03-03T14:01:34.708Z,97761.77
2019-03-03T14:04:03.997Z,97772.39
2019-03-03T14:06:33.337Z,97751.62
2019-03-03T14:09:02.634Z,97749.62
2019-03-03T14:11:32.137Z,97754.22
2019-03-03T14:14:01.658Z,97742.31
2019-03-03T14:16:31.114Z,97742.56
2019-03-03T14:19:00.393Z,97749.45
2019-03-03T14:21:29.639Z,97742.33
2019-03-03T14:23:58.918Z,97742.56
2019-03-03T14:26:28.188Z,97731.75
2019-03-03T14:28:57.446Z,97729.55
2019-03-03T14:31:26.994Z,97713.73
2019-03-03T14:33:56.264Z,97719.24
2019-03-03T14:36:25.517Z,97717.66
2019-03-03T14:38:54.929Z,97710.09
2019-03-03T14:41:24.136Z,97722.31
2019-03-03T14:43:53.368Z,97704.59
2019-03-03T14:46:23.129Z,97715.47
2019-03-03T14:48:52.439Z,97702.91
2019-03-03T14:51:21.974Z,97695.73
2019-03-03T14:53:51.241Z,97695.39
2019-03-03T14:56:20.634Z,97694.52
2019-03-03T14:58:49.961Z,97695.66
2019-03-03T15:01:19.221Z,97701.46
2019-03-03T15:03:48.455Z,97693.48
2019-03-03T15:06:24.406Z,97695.25
2019-03-03T15:08:48.700Z,97685.86
2019-03-03T15:11:18.018Z,97693.08
2019-03-03T15:13:47.262Z,97690.66
2019-03-03T15:16:19.013Z,97682.63
2019-03-03T15:18:49.120Z,97671.70
2019-03-03T15:21:25.044Z,97678.23
2019-03-03T15:23:49.411Z,97675.19
2019-03-03T15:26:19.223Z,97671.96
2019-03-03T15:28:48.482Z,97671.13
2019-03-03T15:31:17.772Z,97666.92
2019-03-03T15:33:47.014Z,97657.89
2019-03-03T15:36:16.291Z,97653.61
2019-03-03T15:38:45.574Z,97641.64
2019-03-03T15:41:14.841Z,97643.25
2019-03-03T15:43:44.111Z,97640.87
2019-03-03T15:46:13.405Z,97636.54
2019-03-03T15:48:42.641Z,97627.64
2019-03-03T15:51:11.997Z,97635.22
2019-03-03T15:53:41.225Z,97624.56
2019-03-03T15:56:10.476Z,97624.56
2019-03-03T15:58:39.705Z,97621.53
2019-03-03T16:01:14.702Z,97623.06
2019-03-03T16:03:43.956Z,97621.02
2019-03-03T16:06:13.201Z,97614.85
2019-03-03T16:08:42.428Z,97619.52
2019-03-03T16:11:12.009Z,97609.44
2019-03-03T16:13:41.246Z,97613.20
2019-03-03T16:16:11.502Z,97614.55
2019-03-03T16:18:40.748Z,97616.50
2019-03-03T16:21:10.040Z,97605.48
2019-03-03T16:23:39.256Z,97608.17
2019-03-03T16:26:08.521Z,97602.44
2019-03-03T16:28:37.796Z,97595.19
2019-03-03T16:31:07.111Z,97590.11
2019-03-03T16:33:36.390Z,97593.09
2019-03-03T16:36:06.048Z,97594.38
2019-03-03T16:38:35.302Z,97595.83
2019-03-03T16:41:04.555Z,97592.47
2019-03-03T16:43:33.789Z,97592.90
2019-03-03T16:46:03.046Z,97594.61
2019-03-03T16:48:32.311Z,97596.12
2019-03-03T16:51:01.542Z,97591.22
2019-03-03T16:53:30.964Z,97583.41
2019-03-03T16:56:00.324Z,97573.09
2019-03-03T16:58:29.960Z,97587.30
2019-03-03T17:00:59.187Z,97586.22
2019-03-03T17:03:28.633Z,97589.36
2019-03-03T17:05:57.990Z,97593.30
2019-03-03T17:08:27.518Z,97595.95
2019-03-03T17:10:57.217Z,97600.37
2019-03-03T17:13:26.824Z,97601.50
2019-03-03T17:15:56.056Z,97600.98
2019-03-03T17:18:25.301Z,97597.55
2019-03-03T17:20:54.548Z,97599.79
2019-03-03T17:23:23.881Z,97595.02
2019-03-03T17:25:53.177Z,97591.13
2019-03-03T17:28:22.501Z,97589.28
2019-03-03T17:30:51.722Z,97574.35
2019-03-03T17:33:21.679Z,97575.44
2019-03-03T17:35:50.921Z,97578.08
2019-03-03T17:38:20.192Z,97576.94
2019-03-03T17:40:49.464Z,97567.08
2019-03-03T17:43:18.713Z,97560.45
2019-03-03T17:45:47.992Z,97563.97
2019-03-03T17:48:17.324Z,97564.04
2019-03-03T17:50:46.512Z,97559.20
2019-03-03T17:53:15.755Z,97555.47
2019-03-03T17:55:45.330Z,97555.86
2019-03-03T17:58:14.684Z,97550.79
2019-03-03T18:00:45.223Z,97548.45
2019-03-03T18:03:14.453Z,97546.06
2019-03-03T18:05:43.732Z,97539.47
2019-03-03T18:08:12.961Z,97543.20
2019-03-03T18:10:42.232Z,97536.56
2019-03-03T18:13:11.454Z,97537.97
2019-03-03T18:15:40.755Z,97530.92
2019-03-03T18:18:09.980Z,97535.28
2019-03-03T18:20:39.335Z,97532.48
2019-03-03T18:23:08.601Z,97529.13
2019-03-03T18:25:37.856Z,97524.34
2019-03-03T18:28:07.089Z,97525.91
2019-03-03T18:30:36.366Z,97523.76
2019-03-03T18:33:05.597Z,97520.39
2019-03-03T18:35:34.835Z,97528.66
2019-03-03T18:38:04.348Z,97523.53
2019-03-03T18:40:33.586Z,97516.80
2019-03-03T18:43:03.020Z,97512.58
2019-03-03T18:45:32.337Z,97513.80
2019-03-03T18:48:01.556Z,97512.19
2019-03-03T18:50:30.797Z,97508.99
2019-03-03T18:53:00.286Z,97518.42
2019-03-03T18:55:29.754Z,97511.73
2019-03-03T18:57:58.976Z,97516.89
2019-03-03T19:00:28.753Z,97526.83
2019-03-03T19:02:58.495Z,97519.91
2019-03-03T19:05:28.077Z,97515.48
2019-03-03T19:07:57.298Z,97507.80
2019-03-03T19:10:26.822Z,97508.59
2019-03-03T19:12:56.278Z,97500.50
2019-03-03T19:15:25.728Z,97495.92
2019-03-03T19:17:54.970Z,97497.98
2019-03-03T19:20:24.205Z,97497.84
2019-03-03T19:22:53.434Z,97495.95
2019-03-03T19:25:22.703Z,97489.61
2019-03-03T19:27:51.939Z,97490.98
2019-03-03T19:30:22.831Z,97490.24
2019-03-03T19:33:05.047Z,97491.92
2019-03-03T19:35:34.282Z,97491.11
2019-03-03T19:38:03.508Z,97493.15
2019-03-03T19:40:32.868Z,97477.50
2019-03-03T19:43:02.097Z,97471.48
2019-03-03T19:45:32.988Z,97470.04
2019-03-03T19:48:02.227Z,97463.52
2019-03-03T19:50:31.904Z,97459.09
2019-03-03T19:53:01.421Z,97473.56
2019-03-03T19:55:30.680Z,97469.41
2019-03-03T19:57:59.900Z,97468.36
2019-03-03T20:00:35.327Z,97469.96
2019-03-03T20:03:02.486Z,97460.56
2019-03-03T20:05:31.777Z,97451.34
2019-03-03T20:08:01.000Z,97456.20
2019-03-03T20:10:30.304Z,97465.27
2019-03-03T20:12:59.526Z,97473.94
2019-03-03T20:15:28.788Z,97481.68
2019-03-03T20:17:58.037Z,97475.86
2019-03-03T20:20:27.259Z,97469.13
2019-03-03T20:22:56.507Z,97464.20
2019-03-03T20:25:26.424Z,97453.72
2019-03-03T20:27:55.663Z,97448.69
2019-03-03T20:30:25.268Z,97449.89
2019-03-03T20:32:54.533Z,97452.86
2019-03-03T20:35:24.591Z,97448.88
2019-03-03T20:37:53.836Z,97437.77
2019-03-03T20:40:23.129Z,97428.11
2019-03-03T20:42:52.427Z,97431.31
2019-03-03T20:45:22.929Z,97434.94
2019-03-03T20:47:52.184Z,97428.65
2019-03-03T20:50:21.970Z,97420.02
2019-03-03T20:52:51.326Z,97418.94
2019-03-03T20:55:20.896Z,97420.09
2019-03-03T20:57:50.153Z,97418.78
2019-03-03T21:00:21.199Z,97409.00
2019-03-03T21:02:50.493Z,97408.92
2019-03-03T21:05:19.811Z,97412.55
2019-03-03T21:07:51.704Z,97415.31
2019-03-03T21:10:21.399Z,97412.38
2019-03-03T21:12:50.676Z,97405.47
2019-03-03T21:15:19.883Z,97404.28
2019-03-03T21:17:49.123Z,97404.97
2019-03-03T21:20:18.969Z,97402.97
2019-03-03T21:22:48.256Z,97412.48
2019-03-03T21:25:17.687Z,97394.82
2019-03-03T21:27:48.954Z,97392.91
2019-03-03T21:30:19.944Z,97392.03
2019-03-03T21:32:49.418Z,97390.39
2019-03-03T21:35:18.734Z,97390.70
2019-03-03T21:37:48.042Z,97385.77
2019-03-03T21:40:18.460Z,97383.76
2019-03-03T21:42:47.747Z,97383.02
2019-03-03T21:45:18.240Z,97386.59
2019-03-03T21:47:47.495Z,97388.33
2019-03-03T21:50:18.401Z,97389.89
2019-03-03T21:52:47.636Z,97384.86
2019-03-03T21:55:16.889Z,97380.00
2019-03-03T21:57:47.549Z,97377.64
2019-03-03T22:00:28.535Z,97383.62
2019-03-03T22:02:58.032Z,97383.25
2019-03-03T22:05:27.581Z,97376.16
2019-03-03T22:07:56.871Z,97383.74
2019-03-03T22:10:35.044Z,97381.96
2019-03-03T22:13:06.415Z,97380.63
2019-03-03T22:15:35.927Z,97385.13
2019-03-03T22:18:05.508Z,97389.92
2019-03-03T22:20:34.783Z,97387.27
2019-03-03T22:23:04.459Z,97396.05
2019-03-03T22:25:33.682Z,97393.45
2019-03-03T22:28:02.943Z,97386.27
2019-03-03T22:30:32.189Z,97387.65
2019-03-03T22:33:01.423Z,97398.20
2019-03-03T22:35:30.647Z,97396.15
2019-03-03T22:37:59.895Z,97381.09
2019-03-03T22:40:31.350Z,97377.17
2019-03-03T22:43:00.590Z,97383.16
2019-03-03T22:45:29.823Z,97377.71
2019-03-03T22:47:59.127Z,97380.14
2019-03-03T22:50:28.342Z,97378.67
2019-03-03T22:52:57.618Z,97373.55
2019-03-03T22:55:26.847Z,97383.66
2019-03-03T22:57:56.090Z,97366.92
2019-03-03T23:00:45.110Z,97359.92
2019-03-03T23:03:17.355Z,97350.58
2019-03-03T23:05:55.586Z,97342.13
2019-03-03T23:08:30.442Z,97329.22
2019-03-03T23:11:37.021Z,97326.80
2019-03-03T23:14:28.972Z,97337.06
2019-03-03T23:17:39.472Z,97332.80
2019-03-03T23:20:20.101Z,97330.88
2019-03-03T23:23:20.935Z,97323.48
2019-03-03T23:25:51.644Z,97322.56
2019-03-03T23:28:22.182Z,97317.31
2019-03-03T23:30:52.300Z,97320.00
2019-03-03T23:33:21.526Z,97327.37
2019-03-03T23:35:51.320Z,97340.45
2019-03-03T23:38:20.629Z,97337.38
2019-03-03T23:40:49.886Z,97333.77
2019-03-03T23:43:19.307Z,97329.25
2019-03-03T23:45:48.847Z,97336.23
2019-03-03T23:48:18.095Z,97328.59
2019-03-03T23:50:47.672Z,97319.67
2019-03-03T23:53:16.901Z,97318.16
2019-03-03T23:55:46.147Z,97308.52
2019-03-03T23:58:17.385Z,97308.14
